createdAt,value
2022-11-15T00:01:01.717Z,2.45
2022-11-15T00:03:52.913Z,2.47
2022-11-15T00:06:44.343Z,2.48
2022-11-15T00:09:35.493Z,2.48
2022-11-15T00:12:28.094Z,2.46
2022-11-15T00:15:18.883Z,2.44
2022-11-15T00:18:14.216Z,2.38
2022-11-15T00:21:07.076Z,2.32
2022-11-15T00:23:59.230Z,2.32
2022-11-15T00:26:50.033Z,2.32
2022-11-15T00:29:43.513Z,2.26
2022-11-15T00:32:36.482Z,2.29
2022-11-15T00:35:27.801Z,2.21
2022-11-15T00:38:18.767Z,2.18
2022-11-15T00:41:10.552Z,2.17
2022-11-15T00:44:01.624Z,2.22
2022-11-15T00:46:52.595Z,2.20
2022-11-15T00:49:43.505Z,2.19
2022-11-15T00:52:35.053Z,2.17
2022-11-15T00:55:25.994Z,2.10
2022-11-15T00:58:17.641Z,2.14
2022-11-15T01:01:10.381Z,2.16
2022-11-15T01:04:01.774Z,2.13
2022-11-15T01:06:52.701Z,2.08
2022-11-15T01:09:43.603Z,1.97
2022-11-15T01:12:34.499Z,1.97
2022-11-15T01:15:25.989Z,2.01
2022-11-15T01:18:16.613Z,2.00
2022-11-15T01:21:09.360Z,2.03
2022-11-15T01:23:59.855Z,2.04
2022-11-15T01:26:50.789Z,2.06
2022-11-15T01:29:41.773Z,2.00
2022-11-15T01:32:33.526Z,2.02
2022-11-15T01:35:24.764Z,1.99
2022-11-15T01:38:15.716Z,1.93
2022-11-15T01:41:06.826Z,1.93
2022-11-15T01:44:18.714Z,1.92
2022-11-15T01:47:14.492Z,1.91
2022-11-15T01:50:10.373Z,1.84
2022-11-15T01:53:01.275Z,1.82
2022-11-15T01:55:52.749Z,1.84
2022-11-15T01:58:44.950Z,1.88
2022-11-15T02:01:36.213Z,1.92
2022-11-15T02:04:30.454Z,1.93
2022-11-15T02:07:22.994Z,1.85
2022-11-15T02:10:18.534Z,1.91
2022-11-15T02:13:10.373Z,1.93
2022-11-15T02:16:11.242Z,1.93
2022-11-15T02:19:14.769Z,1.93
2022-11-15T02:22:18.578Z,1.97
2022-11-15T02:25:32.063Z,1.92
2022-11-15T02:28:50.057Z,1.92
2022-11-15T02:31:49.802Z,1.99
2022-11-15T02:34:51.229Z,1.98
2022-11-15T02:37:49.125Z,2.02
2022-11-15T02:40:46.418Z,2.04
2022-11-15T02:43:58.639Z,2.05
2022-11-15T02:47:11.673Z,2.07
2022-11-15T02:50:08.384Z,2.03
2022-11-15T02:52:59.960Z,2.04
2022-11-15T02:55:52.143Z,2.07
2022-11-15T02:59:01.258Z,2.14
2022-11-15T03:02:07.557Z,2.11
2022-11-15T03:05:03.166Z,2.14
2022-11-15T03:08:02.660Z,2.13
2022-11-15T03:11:03.720Z,2.09
2022-11-15T03:13:59.681Z,2.14
2022-11-15T03:16:56.207Z,2.17
2022-11-15T03:19:51.074Z,2.18
2022-11-15T03:22:45.126Z,2.13
2022-11-15T03:25:50.944Z,2.12
2022-11-15T03:28:44.948Z,2.13
2022-11-15T03:31:50.825Z,2.11
2022-11-15T03:34:46.380Z,2.13
2022-11-15T03:37:44.868Z,2.15
2022-11-15T03:40:39.288Z,2.09
2022-11-15T03:43:36.958Z,2.11
2022-11-15T03:46:33.059Z,2.10
2022-11-15T03:49:29.223Z,2.08
2022-11-15T03:52:21.826Z,2.06
2022-11-15T03:55:16.426Z,2.11
2022-11-15T03:58:07.846Z,2.04
2022-11-15T04:01:00.055Z,2.01
2022-11-15T04:03:51.135Z,2.06
2022-11-15T04:06:42.624Z,2.03
2022-11-15T04:09:33.769Z,1.99
2022-11-15T04:12:31.246Z,2.00
2022-11-15T04:15:24.842Z,1.91
2022-11-15T04:18:16.131Z,1.89
2022-11-15T04:21:26.378Z,1.90
2022-11-15T04:24:17.528Z,1.93
2022-11-15T04:27:08.773Z,1.89
2022-11-15T04:30:00.500Z,1.89
2022-11-15T04:32:51.639Z,1.82
2022-11-15T04:35:42.717Z,1.83
2022-11-15T04:38:33.889Z,1.84
2022-11-15T04:41:24.714Z,1.76
2022-11-15T04:44:16.641Z,1.69
2022-11-15T04:47:08.246Z,1.70
2022-11-15T04:49:59.441Z,1.71
2022-11-15T04:52:54.697Z,1.74
2022-11-15T04:55:45.787Z,1.72
2022-11-15T04:58:36.768Z,1.73
2022-11-15T05:01:27.716Z,1.65
2022-11-15T05:04:21.789Z,1.66
2022-11-15T05:07:12.674Z,1.63
2022-11-15T05:10:03.995Z,1.58
2022-11-15T05:12:54.965Z,1.51
2022-11-15T05:15:45.916Z,1.47
2022-11-15T05:18:36.919Z,1.48
2022-11-15T05:21:28.691Z,1.50
2022-11-15T05:24:19.729Z,1.54
2022-11-15T05:27:10.749Z,1.49
2022-11-15T05:30:01.646Z,1.53
2022-11-15T05:32:52.672Z,1.57
2022-11-15T05:35:49.465Z,1.56
2022-11-15T05:38:41.054Z,1.61
2022-11-15T05:41:34.905Z,1.48
2022-11-15T05:44:26.623Z,1.41
2022-11-15T05:47:22.404Z,1.46
2022-11-15T05:50:15.143Z,1.45
2022-11-15T05:53:06.892Z,1.43
2022-11-15T05:55:58.787Z,1.49
2022-11-15T05:58:49.931Z,1.51
2022-11-15T06:01:41.697Z,1.53
2022-11-15T06:04:32.927Z,1.47
2022-11-15T06:07:23.784Z,1.51
2022-11-15T06:10:14.820Z,1.55
2022-11-15T06:13:06.287Z,1.64
2022-11-15T06:15:57.348Z,1.68
2022-11-15T06:18:48.703Z,1.71
2022-11-15T06:21:39.503Z,1.78
2022-11-15T06:24:30.430Z,1.82
2022-11-15T06:27:21.263Z,1.86
2022-11-15T06:30:13.305Z,1.90
2022-11-15T06:33:05.770Z,1.97
2022-11-15T06:35:56.654Z,1.97
2022-11-15T06:38:48.002Z,2.00
2022-11-15T06:41:39.314Z,2.03
2022-11-15T06:44:30.272Z,2.14
2022-11-15T06:47:21.968Z,2.17
2022-11-15T06:50:13.508Z,2.27
2022-11-15T06:53:04.789Z,2.40
2022-11-15T06:55:59.922Z,2.51
2022-11-15T06:58:51.108Z,2.68
2022-11-15T07:01:42.164Z,2.79
2022-11-15T07:04:36.405Z,2.93
2022-11-15T07:07:27.176Z,3.11
2022-11-15T07:10:17.955Z,3.24
2022-11-15T07:13:08.969Z,3.33
2022-11-15T07:16:02.703Z,3.49
2022-11-15T07:18:53.448Z,3.62
2022-11-15T07:21:45.007Z,3.83
2022-11-15T07:24:36.393Z,3.97
2022-11-15T07:27:27.378Z,4.08
2022-11-15T07:30:18.342Z,4.25
2022-11-15T07:33:09.177Z,4.32
2022-11-15T07:36:02.235Z,4.29
2022-11-15T07:38:54.125Z,4.40
2022-11-15T07:41:44.980Z,4.49
2022-11-15T07:44:35.889Z,4.49
2022-11-15T07:47:29.716Z,4.61
2022-11-15T07:50:20.741Z,4.60
2022-11-15T07:53:11.693Z,4.79
2022-11-15T07:56:06.169Z,5.07
2022-11-15T07:58:57.819Z,5.34
2022-11-15T08:01:49.023Z,5.61
2022-11-15T08:04:40.129Z,5.87
2022-11-15T08:07:31.615Z,6.07
2022-11-15T08:10:22.853Z,6.26
2022-11-15T08:13:15.139Z,6.52
2022-11-15T08:16:06.299Z,6.80
2022-11-15T08:18:57.595Z,7.07
2022-11-15T08:21:48.751Z,7.35
2022-11-15T08:24:39.912Z,7.62
2022-11-15T08:27:30.993Z,7.89
2022-11-15T08:30:23.217Z,8.02
2022-11-15T08:33:14.870Z,8.15
2022-11-15T08:36:06.261Z,8.33
2022-11-15T08:38:57.137Z,8.66
2022-11-15T08:41:48.218Z,9.02
2022-11-15T08:44:39.366Z,9.36
2022-11-15T08:47:30.982Z,9.56
2022-11-15T08:50:21.643Z,10.05
2022-11-15T08:53:13.680Z,10.18
2022-11-15T08:56:07.882Z,10.47
2022-11-15T08:58:59.054Z,10.57
2022-11-15T09:01:50.136Z,10.02
2022-11-15T09:04:42.147Z,9.54
2022-11-15T09:07:32.839Z,9.33
2022-11-15T09:10:24.470Z,9.36
2022-11-15T09:13:15.286Z,9.33
2022-11-15T09:16:06.502Z,9.10
2022-11-15T09:18:57.530Z,9.18
2022-11-15T09:21:49.186Z,9.11
2022-11-15T09:24:40.038Z,9.10
2022-11-15T09:27:31.412Z,9.04
2022-11-15T09:30:22.830Z,9.18
2022-11-15T09:33:14.142Z,9.32
2022-11-15T09:36:07.643Z,9.19
2022-11-15T09:39:00.373Z,9.18
2022-11-15T09:42:06.694Z,9.21
2022-11-15T09:45:11.343Z,9.09
2022-11-15T09:48:31.912Z,9.05
2022-11-15T09:51:46.747Z,9.28
2022-11-15T09:57:30.690Z,9.65
2022-11-15T10:00:43.977Z,9.67
2022-11-15T10:03:14.544Z,9.90
2022-11-15T10:05:49.096Z,9.97
2022-11-15T10:08:46.488Z,9.97
2022-11-15T10:11:37.258Z,9.94
2022-11-15T10:14:14.538Z,10.05
2022-11-15T10:17:14.741Z,10.14
2022-11-15T10:20:01.087Z,10.27
2022-11-15T10:22:42.164Z,10.68
2022-11-15T10:25:19.906Z,10.83
2022-11-15T10:27:56.829Z,10.92
2022-11-15T10:30:34.531Z,11.16
2022-11-15T10:33:16.050Z,11.35
2022-11-15T10:35:48.455Z,11.43
2022-11-15T10:38:20.826Z,11.50
2022-11-15T10:41:08.061Z,11.76
2022-11-15T10:43:41.579Z,11.81
2022-11-15T10:46:45.051Z,12.03
2022-11-15T10:49:15.127Z,12.09
2022-11-15T10:51:49.453Z,11.96
2022-11-15T10:54:27.965Z,11.92
2022-11-15T10:57:06.613Z,11.90
2022-11-15T10:59:43.291Z,11.91
2022-11-15T11:02:29.333Z,11.93
2022-11-15T11:05:03.075Z,11.91
2022-11-15T11:07:37.092Z,11.75
2022-11-15T11:10:49.877Z,11.85
2022-11-15T11:13:14.924Z,11.73
2022-11-15T11:15:52.166Z,11.57
2022-11-15T11:18:31.634Z,11.59
2022-11-15T11:21:08.991Z,11.77
2022-11-15T11:23:50.138Z,11.77
2022-11-15T11:26:39.578Z,11.86
2022-11-15T11:29:28.257Z,11.97
2022-11-15T11:32:11.691Z,11.99
2022-11-15T11:34:56.075Z,12.12
2022-11-15T11:37:35.008Z,12.17
2022-11-15T11:40:19.169Z,12.15
2022-11-15T11:42:59.605Z,11.99
2022-11-15T11:45:54.562Z,11.83
2022-11-15T11:48:41.632Z,11.78
2022-11-15T11:51:21.369Z,11.84
2022-11-15T11:53:55.388Z,11.94
2022-11-15T11:56:30.157Z,11.89
2022-11-15T11:59:13.206Z,12.03
2022-11-15T12:01:46.021Z,11.90
2022-11-15T12:04:25.258Z,12.27
2022-11-15T12:07:02.400Z,12.07
2022-11-15T12:09:39.052Z,12.35
2022-11-15T12:12:18.687Z,12.36
2022-11-15T12:28:38.083Z,12.72
2022-11-15T12:31:16.543Z,12.66
2022-11-15T12:33:50.211Z,12.69
2022-11-15T12:36:38.947Z,12.73
2022-11-15T12:39:12.625Z,12.62
2022-11-15T12:42:05.718Z,12.75
2022-11-15T12:44:59.295Z,12.51
2022-11-15T12:47:31.587Z,12.48
2022-11-15T12:50:04.315Z,12.38
2022-11-15T12:52:36.663Z,12.31
2022-11-15T12:55:33.605Z,12.28
2022-11-15T12:58:29.194Z,12.54
2022-11-15T13:01:02.487Z,12.23
2022-11-15T13:03:35.425Z,12.31
2022-11-15T13:06:30.829Z,12.45
2022-11-15T13:09:04.348Z,12.14
2022-11-15T13:11:47.969Z,12.15
2022-11-15T13:14:51.216Z,12.13
2022-11-15T13:17:27.718Z,12.32
2022-11-15T13:20:03.985Z,12.05
2022-11-15T13:22:52.728Z,11.89
2022-11-15T13:25:58.916Z,12.01
2022-11-15T13:28:35.020Z,11.84
2022-11-15T13:31:37.260Z,11.82
2022-11-15T13:34:53.763Z,11.63
2022-11-15T13:37:32.713Z,11.77
2022-11-15T13:40:20.587Z,11.90
2022-11-15T13:42:53.040Z,12.03
2022-11-15T13:45:26.586Z,11.90
2022-11-15T13:47:59.174Z,11.85
2022-11-15T13:50:37.213Z,11.78
2022-11-15T13:53:10.907Z,11.55
2022-11-15T13:55:43.303Z,11.43
2022-11-15T13:58:17.875Z,11.28
2022-11-15T14:01:01.560Z,11.14
2022-11-15T14:03:37.291Z,11.31
2022-11-15T14:06:12.494Z,11.52
2022-11-15T14:09:02.053Z,11.68
2022-11-15T14:11:34.485Z,11.72
2022-11-15T14:14:15.941Z,11.77
2022-11-15T14:16:50.055Z,11.79
2022-11-15T14:19:37.835Z,11.79
2022-11-15T14:22:22.165Z,11.55
2022-11-15T14:25:24.928Z,11.40
2022-11-15T14:28:29.934Z,11.41
2022-11-15T14:31:07.434Z,11.36
2022-11-15T14:33:40.424Z,11.36
2022-11-15T14:36:14.770Z,11.28
2022-11-15T14:38:48.487Z,11.14
2022-11-15T14:41:22.798Z,10.97
2022-11-15T14:43:55.168Z,10.87
2022-11-15T14:46:27.527Z,10.77
2022-11-15T14:48:59.952Z,10.67
2022-11-15T14:51:33.231Z,10.51
2022-11-15T14:54:06.408Z,10.41
2022-11-15T14:56:38.723Z,10.30
2022-11-15T14:59:11.099Z,10.24
2022-11-15T15:01:43.496Z,10.16
2022-11-15T15:04:15.819Z,10.14
2022-11-15T15:06:48.249Z,10.06
2022-11-15T15:09:21.255Z,10.03
2022-11-15T15:11:54.981Z,9.97
2022-11-15T15:14:27.511Z,9.90
2022-11-15T15:16:59.904Z,9.76
2022-11-15T15:19:32.366Z,9.67
2022-11-15T15:22:05.030Z,9.55
2022-11-15T15:24:38.012Z,9.54
2022-11-15T15:27:10.545Z,9.54
2022-11-15T15:29:42.940Z,9.52
2022-11-15T15:32:15.353Z,9.48
2022-11-15T15:34:47.682Z,9.44
2022-11-15T15:37:24.393Z,9.33
2022-11-15T15:39:57.713Z,9.27
2022-11-15T15:42:30.050Z,9.22
2022-11-15T15:45:02.362Z,9.09
2022-11-15T15:47:34.785Z,9.02
2022-11-15T15:50:20.722Z,8.97
2022-11-15T15:52:55.158Z,8.97
2022-11-15T15:55:29.272Z,8.90
2022-11-15T15:58:01.603Z,8.79
2022-11-15T16:00:34.012Z,8.83
2022-11-15T16:03:06.301Z,8.82
2022-11-15T16:05:38.649Z,8.62
2022-11-15T16:08:18.757Z,8.63
2022-11-15T16:10:51.760Z,8.57
2022-11-15T16:13:24.105Z,8.52
2022-11-15T16:15:56.656Z,8.51
2022-11-15T16:18:28.975Z,8.46
2022-11-15T16:21:01.319Z,8.40
2022-11-15T16:23:33.652Z,8.33
2022-11-15T16:26:20.408Z,8.05
2022-11-15T16:28:53.497Z,8.03
2022-11-15T16:31:25.889Z,7.99
2022-11-15T16:33:58.258Z,7.93
2022-11-15T16:36:34.513Z,7.85
2022-11-15T16:39:06.890Z,7.84
2022-11-15T16:41:39.876Z,7.83
2022-11-15T16:44:12.234Z,7.76
2022-11-15T16:46:51.021Z,7.73
2022-11-15T16:49:23.721Z,7.64
2022-11-15T16:51:56.134Z,7.59
2022-11-15T16:54:28.434Z,7.57
2022-11-15T16:57:01.423Z,7.56
2022-11-15T16:59:38.192Z,7.53
2022-11-15T17:02:12.784Z,7.46
2022-11-15T17:04:46.326Z,7.49
2022-11-15T17:07:18.736Z,7.38
2022-11-15T17:09:51.097Z,7.33
2022-11-15T17:12:24.139Z,7.26
2022-11-15T17:14:56.535Z,7.22
2022-11-15T17:17:28.871Z,7.19
2022-11-15T17:20:04.285Z,7.21
2022-11-15T17:22:37.366Z,7.10
2022-11-15T17:25:10.535Z,7.10
2022-11-15T17:27:43.602Z,7.08
2022-11-15T17:30:17.956Z,7.11
2022-11-15T17:32:50.301Z,7.07
2022-11-15T17:35:22.733Z,7.00
2022-11-15T17:37:55.175Z,6.93
2022-11-15T17:40:27.551Z,6.82
2022-11-15T17:43:00.550Z,6.82
2022-11-15T17:45:32.935Z,6.83
2022-11-15T17:48:05.649Z,6.87
2022-11-15T17:50:38.073Z,6.92
2022-11-15T17:53:10.437Z,6.94
2022-11-15T17:55:42.839Z,6.96
2022-11-15T17:58:17.886Z,6.93
2022-11-15T18:00:50.286Z,6.96
2022-11-15T18:03:22.698Z,6.98
2022-11-15T18:05:55.075Z,6.96
2022-11-15T18:08:27.480Z,6.93
2022-11-15T18:11:04.716Z,6.63
2022-11-15T18:13:38.990Z,6.56
2022-11-15T18:16:13.583Z,6.61
2022-11-15T18:18:46.246Z,6.66
2022-11-15T18:21:21.079Z,6.70
2022-11-15T18:23:56.032Z,6.73
2022-11-15T18:26:29.981Z,6.71
2022-11-15T18:29:04.476Z,6.69
2022-11-15T18:31:36.897Z,6.66
2022-11-15T18:34:09.681Z,6.64
2022-11-15T18:36:43.306Z,6.64
2022-11-15T18:39:15.986Z,6.63
2022-11-15T18:41:48.548Z,6.60
2022-11-15T18:44:21.964Z,6.58
2022-11-15T18:46:54.383Z,6.58
2022-11-15T18:49:26.843Z,6.55
2022-11-15T18:51:59.405Z,6.50
2022-11-15T18:54:32.400Z,6.43
2022-11-15T18:57:06.039Z,6.40
2022-11-15T18:59:40.124Z,6.37
2022-11-15T19:02:12.577Z,6.36
2022-11-15T19:04:44.957Z,6.37
2022-11-15T19:07:17.365Z,6.32
2022-11-15T19:09:49.840Z,6.33
2022-11-15T19:12:22.335Z,6.29
2022-11-15T19:14:55.415Z,6.29
2022-11-15T19:17:27.980Z,6.28
2022-11-15T19:20:00.403Z,6.23
2022-11-15T19:22:33.285Z,6.23
2022-11-15T19:25:07.624Z,6.24
2022-11-15T19:27:40.097Z,6.20
2022-11-15T19:30:13.786Z,6.15
2022-11-15T19:32:46.088Z,6.12
2022-11-15T19:35:18.600Z,6.07
2022-11-15T19:37:51.824Z,6.04
2022-11-15T19:40:24.222Z,6.02
2022-11-15T19:42:56.583Z,6.01
2022-11-15T19:45:29.699Z,5.97
2022-11-15T19:48:02.054Z,6.02
2022-11-15T19:50:37.319Z,5.99
2022-11-15T19:53:09.714Z,5.97
2022-11-15T19:55:42.543Z,5.98
2022-11-15T19:58:15.280Z,5.91
2022-11-15T20:00:48.478Z,5.94
2022-11-15T20:03:20.853Z,5.92
2022-11-15T20:05:53.305Z,5.97
2022-11-15T20:08:25.700Z,5.91
2022-11-15T20:10:59.120Z,5.91
2022-11-15T20:13:31.734Z,5.97
2022-11-15T20:16:07.691Z,5.75
2022-11-15T20:18:40.086Z,5.84
2022-11-15T20:21:12.803Z,5.86
2022-11-15T20:23:47.273Z,5.91
2022-11-15T20:26:20.373Z,5.95
2022-11-15T20:28:52.743Z,5.97
2022-11-15T20:31:25.806Z,5.97
2022-11-15T20:33:58.559Z,5.99
2022-11-15T20:36:31.977Z,5.95
2022-11-15T20:39:04.666Z,5.97
2022-11-15T20:41:37.036Z,5.96
2022-11-15T20:44:09.406Z,5.96
2022-11-15T20:46:42.598Z,5.94
2022-11-15T20:49:14.972Z,5.95
2022-11-15T20:51:47.400Z,5.93
2022-11-15T20:54:19.885Z,5.93
2022-11-15T20:56:52.246Z,5.90
2022-11-15T20:59:24.655Z,5.93
2022-11-15T21:01:57.809Z,5.93
2022-11-15T21:04:30.398Z,5.90
2022-11-15T21:07:02.789Z,5.93
2022-11-15T21:09:53.281Z,5.87
2022-11-15T21:12:25.620Z,5.92
2022-11-15T21:14:58.053Z,5.89
2022-11-15T21:17:31.052Z,5.86
2022-11-15T21:20:03.864Z,5.92
2022-11-15T21:22:36.492Z,5.93
2022-11-15T21:25:09.651Z,5.94
2022-11-15T21:27:42.110Z,5.87
2022-11-15T21:30:14.553Z,5.80
2022-11-15T21:32:47.664Z,5.80
2022-11-15T21:35:20.363Z,5.88
2022-11-15T21:37:56.823Z,5.97
2022-11-15T21:40:29.610Z,6.06
2022-11-15T21:43:01.937Z,6.08
2022-11-15T21:45:34.297Z,6.11
2022-11-15T21:48:07.390Z,6.11
2022-11-15T21:50:39.816Z,6.24
2022-11-15T21:53:12.176Z,6.27
2022-11-15T21:55:44.558Z,6.25
2022-11-15T21:58:17.236Z,6.21
2022-11-15T22:01:08.685Z,6.03
2022-11-15T22:03:42.294Z,5.90
2022-11-15T22:06:18.025Z,5.88
2022-11-15T22:08:50.743Z,5.94
2022-11-15T22:11:23.120Z,5.94
2022-11-15T22:13:55.669Z,5.95
2022-11-15T22:16:28.054Z,5.99
2022-11-15T22:19:01.219Z,5.85
2022-11-15T22:21:33.580Z,5.88
2022-11-15T22:24:06.779Z,5.80
2022-11-15T22:26:39.312Z,5.79
2022-11-15T22:29:11.719Z,5.77
2022-11-15T22:31:44.076Z,5.76
2022-11-15T22:34:17.110Z,5.77
2022-11-15T22:37:18.120Z,5.73
2022-11-15T22:39:43.131Z,5.71
2022-11-15T22:42:18.279Z,5.72
2022-11-15T22:44:54.630Z,5.75
2022-11-15T22:47:27.044Z,5.73
2022-11-15T22:50:00.133Z,5.75
2022-11-15T22:52:32.577Z,5.73
2022-11-15T22:55:06.096Z,5.76
2022-11-15T22:57:38.553Z,5.76
2022-11-15T23:00:13.559Z,5.68
2022-11-15T23:02:47.221Z,5.69
2022-11-15T23:05:22.769Z,5.62
2022-11-15T23:07:55.134Z,5.56
2022-11-15T23:10:45.313Z,5.56
2022-11-15T23:13:17.794Z,5.52
2022-11-15T23:16:10.084Z,5.55
2022-11-15T23:18:42.440Z,5.60
2022-11-15T23:21:39.080Z,5.70
2022-11-15T23:24:12.783Z,5.79
2022-11-15T23:26:46.746Z,5.81
2022-11-15T23:29:20.887Z,5.78
2022-11-15T23:32:12.846Z,5.78
2022-11-15T23:34:45.790Z,5.84
2022-11-15T23:37:18.829Z,5.87
2022-11-15T23:39:51.760Z,5.90
2022-11-15T23:42:24.117Z,5.94
2022-11-15T23:44:56.457Z,5.97
2022-11-15T23:47:28.856Z,5.99
2022-11-15T23:50:01.309Z,5.96
2022-11-15T23:52:34.365Z,6.02
2022-11-15T23:55:07.409Z,6.11
2022-11-15T23:57:39.757Z,6.14
